sensor_id;sensor_type;location;lat;lon;timestamp;pressure;altitude;pressure_sealevel;temperature;humidity
63395;BME280;49531;-34.520;150.798;2023-04-02T00:01:04;101121.09;;;20.80;58.19
63395;BME280;49531;-34.520;150.798;2023-04-02T00:06:35;101118.94;;;20.82;58.45
63395;BME280;49531;-34.520;150.798;2023-04-02T00:09:20;101117.84;;;20.78;58.50
63395;BME280;49531;-34.520;150.798;2023-04-02T00:11:49;101117.78;;;20.73;59.30
63395;BME280;49531;-34.520;150.798;2023-04-02T00:14:24;101124.28;;;20.72;59.64
63395;BME280;49531;-34.520;150.798;2023-04-02T00:16:52;101124.84;;;20.74;59.30
63395;BME280;49531;-34.520;150.798;2023-04-02T00:19:24;101122.19;;;20.79;59.57
63395;BME280;49531;-34.520;150.798;2023-04-02T00:21:53;101120.84;;;20.81;59.38
63395;BME280;49531;-34.520;150.798;2023-04-02T00:24:21;101124.44;;;20.87;59.83
63395;BME280;49531;-34.520;150.798;2023-04-02T00:26:49;101119.28;;;20.85;59.74
63395;BME280;49531;-34.520;150.798;2023-04-02T00:29:16;101124.94;;;20.84;59.64
63395;BME280;49531;-34.520;150.798;2023-04-02T00:31:44;101115.72;;;20.85;59.70
63395;BME280;49531;-34.520;150.798;2023-04-02T00:34:19;101120.59;;;20.83;59.68
63395;BME280;49531;-34.520;150.798;2023-04-02T00:36:47;101118.75;;;20.88;59.96
63395;BME280;49531;-34.520;150.798;2023-04-02T00:39:17;101119.34;;;20.90;59.93
63395;BME280;49531;-34.520;150.798;2023-04-02T00:41:45;101104.69;;;20.91;59.98
63395;BME280;49531;-34.520;150.798;2023-04-02T00:44:13;101108.28;;;20.97;59.79
63395;BME280;49531;-34.520;150.798;2023-04-02T00:46:46;101105.88;;;21.01;61.05
63395;BME280;49531;-34.520;150.798;2023-04-02T00:49:17;101107.59;;;21.07;62.15
63395;BME280;49531;-34.520;150.798;2023-04-02T00:51:47;101109.72;;;21.05;61.88
63395;BME280;49531;-34.520;150.798;2023-04-02T00:54:14;101118.75;;;21.10;61.78
63395;BME280;49531;-34.520;150.798;2023-04-02T00:56:46;101109.22;;;21.08;61.50
63395;BME280;49531;-34.520;150.798;2023-04-02T01:02:19;101101.34;;;21.06;61.98
63395;BME280;49531;-34.520;150.798;2023-04-02T01:04:52;101098.63;;;21.06;62.33
63395;BME280;49531;-34.520;150.798;2023-04-02T01:07:21;101100.31;;;21.12;62.41
63395;BME280;49531;-34.520;150.798;2023-04-02T01:09:57;101100.31;;;21.12;61.98
63395;BME280;49531;-34.520;150.798;2023-04-02T01:12:39;101093.88;;;21.18;62.15
63395;BME280;49531;-34.520;150.798;2023-04-02T01:15:12;101102.56;;;21.20;61.80
63395;BME280;49531;-34.520;150.798;2023-04-02T01:17:53;101099.09;;;21.25;61.78
63395;BME280;49531;-34.520;150.798;2023-04-02T01:20:33;101093.66;;;21.25;61.45
63395;BME280;49531;-34.520;150.798;2023-04-02T01:23:10;101099.09;;;21.25;61.41
63395;BME280;49531;-34.520;150.798;2023-04-02T01:25:44;101097.25;;;21.30;61.21
63395;BME280;49531;-34.520;150.798;2023-04-02T01:28:18;101105.97;;;21.33;61.01
63395;BME280;49531;-34.520;150.798;2023-04-02T01:30:48;101100.28;;;21.34;60.96
63395;BME280;49531;-34.520;150.798;2023-04-02T01:33:16;101101.41;;;21.38;60.84
63395;BME280;49531;-34.520;150.798;2023-04-02T01:35:43;101097.88;;;21.38;60.92
63395;BME280;49531;-34.520;150.798;2023-04-02T01:38:16;101093.00;;;21.40;60.58
63395;BME280;49531;-34.520;150.798;2023-04-02T01:40:51;101094.13;;;21.44;60.33
63395;BME280;49531;-34.520;150.798;2023-04-02T01:43:27;101094.13;;;21.44;60.34
63395;BME280;49531;-34.520;150.798;2023-04-02T01:45:57;101088.44;;;21.45;60.17
63395;BME280;49531;-34.520;150.798;2023-04-02T01:48:27;101090.09;;;21.46;60.12
63395;BME280;49531;-34.520;150.798;2023-04-02T01:50:55;101078.97;;;21.48;60.04
63395;BME280;49531;-34.520;150.798;2023-04-02T01:53:23;101078.09;;;21.42;60.18
63395;BME280;49531;-34.520;150.798;2023-04-02T01:55:53;101080.28;;;21.45;60.16
63395;BME280;49531;-34.520;150.798;2023-04-02T01:58:21;101078.97;;;21.48;60.19
63395;BME280;49531;-34.520;150.798;2023-04-02T02:00:51;101073.56;;;21.53;60.06
63395;BME280;49531;-34.520;150.798;2023-04-02T02:03:18;101074.69;;;21.57;59.77
63395;BME280;49531;-34.520;150.798;2023-04-02T02:05:46;101074.16;;;21.60;59.60
63395;BME280;49531;-34.520;150.798;2023-04-02T02:08:19;101072.53;;;21.59;59.74
63395;BME280;49531;-34.520;150.798;2023-04-02T02:10:48;101060.56;;;21.60;59.74
63395;BME280;49531;-34.520;150.798;2023-04-02T02:13:15;101059.22;;;21.62;59.58
63395;BME280;49531;-34.520;150.798;2023-04-02T02:15:41;101058.72;;;21.66;59.32
63395;BME280;49531;-34.520;150.798;2023-04-02T02:18:09;101058.75;;;21.71;58.91
63395;BME280;49531;-34.520;150.798;2023-04-02T02:20:36;101050.03;;;21.69;59.02
63395;BME280;49531;-34.520;150.798;2023-04-02T02:23:02;101049.50;;;21.72;58.59
63395;BME280;49531;-34.520;150.798;2023-04-02T02:25:30;101049.50;;;21.72;58.46
63395;BME280;49531;-34.520;150.798;2023-04-02T02:28:07;101042.44;;;21.71;58.79
63395;BME280;49531;-34.520;150.798;2023-04-02T02:30:37;101043.81;;;21.73;58.88
63395;BME280;49531;-34.520;150.798;2023-04-02T02:33:05;101040.53;;;21.71;59.09
63395;BME280;49531;-34.520;150.798;2023-04-02T02:35:37;101042.47;;;21.76;59.29
63395;BME280;49531;-34.520;150.798;2023-04-02T02:40:44;101032.97;;;21.78;59.37
63395;BME280;49531;-34.520;150.798;2023-04-02T02:43:14;101031.91;;;21.79;59.66
63395;BME280;49531;-34.520;150.798;2023-04-02T02:45:42;101031.94;;;21.84;59.58
63395;BME280;49531;-34.520;150.798;2023-04-02T02:48:11;101025.69;;;21.84;59.33
63395;BME280;49531;-34.520;150.798;2023-04-02T02:50:39;101026.50;;;21.84;59.34
63395;BME280;49531;-34.520;150.798;2023-04-02T02:53:12;101012.94;;;21.89;59.16
63395;BME280;49531;-34.520;150.798;2023-04-02T02:55:40;101020.56;;;21.92;58.95
63395;BME280;49531;-34.520;150.798;2023-04-02T02:58:08;101020.03;;;21.90;58.86
63395;BME280;49531;-34.520;150.798;2023-04-02T03:00:36;101012.41;;;21.92;58.38
63395;BME280;49531;-34.520;150.798;2023-04-02T03:03:04;101010.53;;;21.93;58.74
63395;BME280;49531;-34.520;150.798;2023-04-02T03:05:32;101006.97;;;21.92;59.08
63395;BME280;49531;-34.520;150.798;2023-04-02T03:07:59;101010.53;;;21.93;59.16
63395;BME280;49531;-34.520;150.798;2023-04-02T03:10:32;101010.25;;;21.94;58.66
63395;BME280;49531;-34.520;150.798;2023-04-02T03:13:07;101001.31;;;21.99;57.96
63395;BME280;49531;-34.520;150.798;2023-04-02T03:18:17;100994.00;;;22.05;57.50
63395;BME280;49531;-34.520;150.798;2023-04-02T03:20:51;101000.50;;;21.99;58.28
63395;BME280;49531;-34.520;150.798;2023-04-02T03:23:22;100997.22;;;21.96;58.49
63395;BME280;49531;-34.520;150.798;2023-04-02T03:25:55;100994.53;;;22.02;58.22
63395;BME280;49531;-34.520;150.798;2023-04-02T03:28:24;100992.38;;;22.04;58.32
63395;BME280;49531;-34.520;150.798;2023-04-02T03:30:55;100997.28;;;22.07;58.28
63395;BME280;49531;-34.520;150.798;2023-04-02T03:33:26;100984.22;;;22.09;58.32
63395;BME280;49531;-34.520;150.798;2023-04-02T03:35:57;100985.34;;;22.13;58.22
63395;BME280;49531;-34.520;150.798;2023-04-02T03:38:27;100986.97;;;22.14;58.29
63395;BME280;49531;-34.520;150.798;2023-04-02T03:41:12;100981.53;;;22.14;58.20
63395;BME280;49531;-34.520;150.798;2023-04-02T03:43:42;100977.22;;;22.18;58.08
63395;BME280;49531;-34.520;150.798;2023-04-02T03:46:12;100988.38;;;22.21;57.67
63395;BME280;49531;-34.520;150.798;2023-04-02T03:48:42;100986.75;;;22.20;57.85
63395;BME280;49531;-34.520;150.798;2023-04-02T03:51:17;100989.47;;;22.20;57.97
63395;BME280;49531;-34.520;150.798;2023-04-02T03:53:45;100984.84;;;22.21;57.97
63395;BME280;49531;-34.520;150.798;2023-04-02T03:56:24;100985.66;;;22.21;57.90
63395;BME280;49531;-34.520;150.798;2023-04-02T03:59:14;100985.41;;;22.23;57.99
63395;BME280;49531;-34.520;150.798;2023-04-02T04:01:44;100976.19;;;22.29;57.66
63395;BME280;49531;-34.520;150.798;2023-04-02T04:04:13;100982.19;;;22.31;57.65
63395;BME280;49531;-34.520;150.798;2023-04-02T04:06:42;100987.34;;;22.33;57.74
63395;BME280;49531;-34.520;150.798;2023-04-02T04:09:17;100974.56;;;22.33;57.50
63395;BME280;49531;-34.520;150.798;2023-04-02T04:11:46;100970.75;;;22.34;57.34
63395;BME280;49531;-34.520;150.798;2023-04-02T04:14:16;100974.03;;;22.36;57.12
63395;BME280;49531;-34.520;150.798;2023-04-02T04:16:50;100982.44;;;22.40;56.79
63395;BME280;49531;-34.520;150.798;2023-04-02T04:19:22;100979.47;;;22.41;56.57
63395;BME280;49531;-34.520;150.798;2023-04-02T04:22:06;100979.47;;;22.41;57.06
63395;BME280;49531;-34.520;150.798;2023-04-02T04:24:34;100980.84;;;22.44;57.05
63395;BME280;49531;-34.520;150.798;2023-04-02T04:27:05;100981.38;;;22.41;57.04
63395;BME280;49531;-34.520;150.798;2023-04-02T04:29:44;100981.09;;;22.42;56.52
63395;BME280;49531;-34.520;150.798;2023-04-02T04:34:54;100971.59;;;22.45;56.61
63395;BME280;49531;-34.520;150.798;2023-04-02T04:37:23;100976.50;;;22.48;56.45
63395;BME280;49531;-34.520;150.798;2023-04-02T04:39:55;100974.03;;;22.46;56.43
63395;BME280;49531;-34.520;150.798;2023-04-02T04:42:24;100975.69;;;22.47;56.35
63395;BME280;49531;-34.520;150.798;2023-04-02T04:44:54;100974.34;;;22.50;56.24
63395;BME280;49531;-34.520;150.798;2023-04-02T04:47:25;100968.88;;;22.50;56.26
63395;BME280;49531;-34.520;150.798;2023-04-02T04:49:56;100965.34;;;22.49;55.74
63395;BME280;49531;-34.520;150.798;2023-04-02T04:52:29;100968.34;;;22.53;55.84
63395;BME280;49531;-34.520;150.798;2023-04-02T04:54:59;100965.38;;;22.54;56.10
63395;BME280;49531;-34.520;150.798;2023-04-02T04:57:28;100977.88;;;22.55;56.17
63395;BME280;49531;-34.520;150.798;2023-04-02T04:59:58;100977.06;;;22.55;56.20
63395;BME280;49531;-34.520;150.798;2023-04-02T05:02:32;100976.81;;;22.56;56.07
63395;BME280;49531;-34.520;150.798;2023-04-02T05:05:01;100969.47;;;22.57;56.51
63395;BME280;49531;-34.520;150.798;2023-04-02T05:07:29;100973.53;;;22.59;56.69
63395;BME280;49531;-34.520;150.798;2023-04-02T05:10:02;100968.63;;;22.56;56.62
63395;BME280;49531;-34.520;150.798;2023-04-02T05:12:34;100968.09;;;22.59;56.33
63395;BME280;49531;-34.520;150.798;2023-04-02T05:17:49;100979.25;;;22.53;55.88
63395;BME280;49531;-34.520;150.798;2023-04-02T05:20:22;100975.69;;;22.47;56.32
63395;BME280;49531;-34.520;150.798;2023-04-02T05:22:53;100977.59;;;22.52;56.21
63395;BME280;49531;-34.520;150.798;2023-04-02T05:25:22;100975.44;;;22.54;56.47
63395;BME280;49531;-34.520;150.798;2023-04-02T05:27:52;100983.34;;;22.55;56.42
63395;BME280;49531;-34.520;150.798;2023-04-02T05:35:50;100981.41;;;22.51;57.14
63395;BME280;49531;-34.520;150.798;2023-04-02T05:38:19;100977.84;;;22.45;57.14
63395;BME280;49531;-34.520;150.798;2023-04-02T05:40:49;100982.22;;;22.46;56.83
63395;BME280;49531;-34.520;150.798;2023-04-02T05:43:18;100979.19;;;22.43;57.25
63395;BME280;49531;-34.520;150.798;2023-04-02T05:45:50;100984.38;;;22.44;57.02
63395;BME280;49531;-34.520;150.798;2023-04-02T05:48:20;100988.75;;;22.45;56.69
63395;BME280;49531;-34.520;150.798;2023-04-02T05:50:49;100987.69;;;22.56;56.76
63395;BME280;49531;-34.520;150.798;2023-04-02T05:53:20;100985.00;;;22.61;56.74
63395;BME280;49531;-34.520;150.798;2023-04-02T05:55:56;100984.44;;;22.59;56.68
63395;BME280;49531;-34.520;150.798;2023-04-02T05:58:33;100976.56;;;22.63;56.68
63395;BME280;49531;-34.520;150.798;2023-04-02T06:01:03;100966.72;;;22.57;56.30
63395;BME280;49531;-34.520;150.798;2023-04-02T06:03:35;100971.94;;;22.63;56.47
63395;BME280;49531;-34.520;150.798;2023-04-02T06:06:05;100967.84;;;22.66;56.29
63395;BME280;49531;-34.520;150.798;2023-04-02T06:08:37;100967.59;;;22.68;55.98
63395;BME280;49531;-34.520;150.798;2023-04-02T06:11:10;100969.22;;;22.69;56.29
63395;BME280;49531;-34.520;150.798;2023-04-02T06:13:37;100975.50;;;22.69;56.34
63395;BME280;49531;-34.520;150.798;2023-04-02T06:16:04;100971.41;;;22.67;56.24
63395;BME280;49531;-34.520;150.798;2023-04-02T06:18:32;100973.00;;;22.62;56.40
63395;BME280;49531;-34.520;150.798;2023-04-02T06:21:00;100974.38;;;22.60;56.78
63395;BME280;49531;-34.520;150.798;2023-04-02T06:23:37;100983.63;;;22.59;56.59
63395;BME280;49531;-34.520;150.798;2023-04-02T06:26:07;100971.91;;;22.58;56.85
63395;BME280;49531;-34.520;150.798;2023-04-02T06:28:41;100977.31;;;22.48;56.39
63395;BME280;49531;-34.520;150.798;2023-04-02T06:31:18;100984.41;;;22.49;56.22
63395;BME280;49531;-34.520;150.798;2023-04-02T06:33:45;100984.38;;;22.39;56.46
63395;BME280;49531;-34.520;150.798;2023-04-02T06:36:17;100990.34;;;22.41;56.37
63395;BME280;49531;-34.520;150.798;2023-04-02T06:38:44;100981.66;;;22.39;56.32
63395;BME280;49531;-34.520;150.798;2023-04-02T06:41:19;100978.13;;;22.39;55.52
63395;BME280;49531;-34.520;150.798;2023-04-02T06:43:54;100981.63;;;22.29;54.95
63395;BME280;49531;-34.520;150.798;2023-04-02T06:46:30;100985.16;;;22.29;55.48
63395;BME280;49531;-34.520;150.798;2023-04-02T06:49:04;100991.41;;;22.30;55.61
63395;BME280;49531;-34.520;150.798;2023-04-02T06:51:34;100991.72;;;22.34;55.48
63395;BME280;49531;-34.520;150.798;2023-04-02T06:54:02;100983.84;;;22.37;55.61
63395;BME280;49531;-34.520;150.798;2023-04-02T06:56:37;100986.56;;;22.37;54.43
63395;BME280;49531;-34.520;150.798;2023-04-02T06:59:06;100987.63;;;22.36;54.36
63395;BME280;49531;-34.520;150.798;2023-04-02T07:01:36;100997.97;;;22.34;54.23
63395;BME280;49531;-34.520;150.798;2023-04-02T07:04:04;101002.03;;;22.32;54.08
63395;BME280;49531;-34.520;150.798;2023-04-02T07:06:31;101006.41;;;22.33;54.28
63395;BME280;49531;-34.520;150.798;2023-04-02T07:08:57;101003.97;;;22.36;54.57
63395;BME280;49531;-34.520;150.798;2023-04-02T07:11:24;101012.97;;;22.37;54.18
63395;BME280;49531;-34.520;150.798;2023-04-02T07:13:50;101009.91;;;22.28;53.66
63395;BME280;49531;-34.520;150.798;2023-04-02T07:16:18;101017.78;;;22.24;53.88
63395;BME280;49531;-34.520;150.798;2023-04-02T07:18:45;101011.00;;;22.27;53.63
63395;BME280;49531;-34.520;150.798;2023-04-02T07:21:12;101012.63;;;22.28;53.47
63395;BME280;49531;-34.520;150.798;2023-04-02T07:23:39;101017.53;;;22.26;53.69
63395;BME280;49531;-34.520;150.798;2023-04-02T07:26:08;101022.69;;;22.27;53.32
63395;BME280;49531;-34.520;150.798;2023-04-02T07:28:34;101024.03;;;22.20;53.39
63395;BME280;49531;-34.520;150.798;2023-04-02T07:31:01;101025.66;;;22.21;53.57
63395;BME280;49531;-34.520;150.798;2023-04-02T07:33:28;101027.03;;;22.23;53.45
63395;BME280;49531;-34.520;150.798;2023-04-02T07:35:55;101032.75;;;22.22;53.54
63395;BME280;49531;-34.520;150.798;2023-04-02T07:38:22;101038.47;;;22.25;53.50
63395;BME280;49531;-34.520;150.798;2023-04-02T07:40:48;101038.72;;;22.19;53.91
63395;BME280;49531;-34.520;150.798;2023-04-02T07:43:16;101040.34;;;22.20;53.53
63395;BME280;49531;-34.520;150.798;2023-04-02T07:45:42;101041.72;;;22.22;52.92
63395;BME280;49531;-34.520;150.798;2023-04-02T07:48:10;101043.34;;;22.23;53.12
63395;BME280;49531;-34.520;150.798;2023-04-02T07:50:37;101044.69;;;22.21;53.08
63395;BME280;49531;-34.520;150.798;2023-04-02T07:53:04;101049.03;;;22.17;53.19
63395;BME280;49531;-34.520;150.798;2023-04-02T07:55:31;101050.69;;;22.23;53.38
63395;BME280;49531;-34.520;150.798;2023-04-02T07:57:58;101059.66;;;22.18;53.90
63395;BME280;49531;-34.520;150.798;2023-04-02T08:00:25;101058.84;;;22.18;53.89
63395;BME280;49531;-34.520;150.798;2023-04-02T08:02:52;101064.25;;;22.13;54.13
63395;BME280;49531;-34.520;150.798;2023-04-02T08:05:18;101061.00;;;22.16;54.28
63395;BME280;49531;-34.520;150.798;2023-04-02T08:07:52;101069.72;;;22.18;54.00
63395;BME280;49531;-34.520;150.798;2023-04-02T08:10:19;101070.28;;;22.20;54.10
63395;BME280;49531;-34.520;150.798;2023-04-02T08:12:45;101076.28;;;22.22;53.98
63395;BME280;49531;-34.520;150.798;2023-04-02T08:15:13;101076.00;;;22.23;53.87
63395;BME280;49531;-34.520;150.798;2023-04-02T08:17:40;101077.38;;;22.26;53.94
63395;BME280;49531;-34.520;150.798;2023-04-02T08:20:11;101079.84;;;22.27;53.84
63395;BME280;49531;-34.520;150.798;2023-04-02T08:22:39;101079.03;;;22.27;53.74
63395;BME280;49531;-34.520;150.798;2023-04-02T08:25:06;101082.31;;;22.29;53.82
63395;BME280;49531;-34.520;150.798;2023-04-02T08:27:32;101087.22;;;22.32;53.74
63395;BME280;49531;-34.520;150.798;2023-04-02T08:29:59;101089.69;;;22.34;53.70
63395;BME280;49531;-34.520;150.798;2023-04-02T08:32:25;101084.25;;;22.34;53.64
63395;BME280;49531;-34.520;150.798;2023-04-02T08:34:53;101092.66;;;22.32;53.62
63395;BME280;49531;-34.520;150.798;2023-04-02T08:37:19;101094.31;;;22.33;53.77
63395;BME280;49531;-34.520;150.798;2023-04-02T08:39:46;101088.88;;;22.33;53.64
63395;BME280;49531;-34.520;150.798;2023-04-02T08:42:18;101097.84;;;22.34;53.55
63395;BME280;49531;-34.520;150.798;2023-04-02T08:44:52;101110.13;;;22.36;53.74
63395;BME280;49531;-34.520;150.798;2023-04-02T08:47:22;101101.13;;;22.36;53.76
63395;BME280;49531;-34.520;150.798;2023-04-02T08:49:56;101106.31;;;22.37;53.72
63395;BME280;49531;-34.520;150.798;2023-04-02T08:52:25;101114.47;;;22.37;53.86
63395;BME280;49531;-34.520;150.798;2023-04-02T08:54:51;101107.38;;;22.36;53.96
63395;BME280;49531;-34.520;150.798;2023-04-02T08:57:24;101116.38;;;22.37;53.91
63395;BME280;49531;-34.520;150.798;2023-04-02T08:59:58;101119.66;;;22.39;53.93
63395;BME280;49531;-34.520;150.798;2023-04-02T09:02:29;101116.13;;;22.38;53.77
63395;BME280;49531;-34.520;150.798;2023-04-02T09:05:02;101118.53;;;22.40;53.97
63395;BME280;49531;-34.520;150.798;2023-04-02T09:07:29;101114.22;;;22.39;53.94
63395;BME280;49531;-34.520;150.798;2023-04-02T09:09:57;101116.13;;;22.38;54.04
63395;BME280;49531;-34.520;150.798;2023-04-02T09:12:26;101125.91;;;22.39;53.95
63395;BME280;49531;-34.520;150.798;2023-04-02T09:17:39;101128.63;;;22.39;54.18
63395;BME280;49531;-34.520;150.798;2023-04-02T09:20:13;101131.63;;;22.38;54.28
63395;BME280;49531;-34.520;150.798;2023-04-02T09:22:42;101136.50;;;22.41;54.20
63395;BME280;49531;-34.520;150.798;2023-04-02T09:25:11;101135.16;;;22.38;54.46
63395;BME280;49531;-34.520;150.798;2023-04-02T09:27:39;101148.22;;;22.41;54.31
63395;BME280;49531;-34.520;150.798;2023-04-02T09:30:13;101144.16;;;22.39;54.37
63395;BME280;49531;-34.520;150.798;2023-04-02T09:32:48;101153.13;;;22.39;54.51
63395;BME280;49531;-34.520;150.798;2023-04-02T09:35:16;101153.13;;;22.39;54.76
63395;BME280;49531;-34.520;150.798;2023-04-02T09:37:44;101153.41;;;22.38;54.54
63395;BME280;49531;-34.520;150.798;2023-04-02T09:40:27;101149.84;;;22.37;54.78
63395;BME280;49531;-34.520;150.798;2023-04-02T09:43:04;101156.94;;;22.38;54.51
63395;BME280;49531;-34.520;150.798;2023-04-02T09:45:34;101157.75;;;22.39;54.60
63395;BME280;49531;-34.520;150.798;2023-04-02T09:48:01;101159.38;;;22.40;54.68
63395;BME280;49531;-34.520;150.798;2023-04-02T09:50:30;101157.75;;;22.39;54.59
63395;BME280;49531;-34.520;150.798;2023-04-02T09:52:56;101167.00;;;22.38;54.67
63395;BME280;49531;-34.520;150.798;2023-04-02T09:55:24;101170.56;;;22.38;54.66
63395;BME280;49531;-34.520;150.798;2023-04-02T09:58:05;101180.63;;;22.38;54.60
63395;BME280;49531;-34.520;150.798;2023-04-02T10:00:33;101170.56;;;22.38;54.77
63395;BME280;49531;-34.520;150.798;2023-04-02T10:03:03;101174.34;;;22.37;54.72
63395;BME280;49531;-34.520;150.798;2023-04-02T10:05:30;101174.34;;;22.37;54.77
63395;BME280;49531;-34.520;150.798;2023-04-02T10:08:05;101181.69;;;22.37;54.75
63395;BME280;49531;-34.520;150.798;2023-04-02T10:10:38;101187.13;;;22.37;54.86
63395;BME280;49531;-34.520;150.798;2023-04-02T10:13:07;101180.88;;;22.36;54.70
63395;BME280;49531;-34.520;150.798;2023-04-02T10:15:41;101177.59;;;22.34;54.69
63395;BME280;49531;-34.520;150.798;2023-04-02T10:18:15;101189.31;;;22.35;54.79
63395;BME280;49531;-34.520;150.798;2023-04-02T10:20:45;101182.47;;;22.32;54.66
63395;BME280;49531;-34.520;150.798;2023-04-02T10:23:14;101183.81;;;22.29;54.73
63395;BME280;49531;-34.520;150.798;2023-04-02T10:25:51;101180.53;;;22.27;54.88
63395;BME280;49531;-34.520;150.798;2023-04-02T10:28:24;101187.88;;;22.27;54.69
63395;BME280;49531;-34.520;150.798;2023-04-02T10:30:57;101186.25;;;22.26;54.79
63395;BME280;49531;-34.520;150.798;2023-04-02T10:33:31;101181.31;;;22.23;54.78
63395;BME280;49531;-34.520;150.798;2023-04-02T10:36:02;101181.06;;;22.24;54.86
63395;BME280;49531;-34.520;150.798;2023-04-02T10:38:36;101177.78;;;22.22;54.91
63395;BME280;49531;-34.520;150.798;2023-04-02T10:41:11;101188.91;;;22.21;54.91
63395;BME280;49531;-34.520;150.798;2023-04-02T10:43:44;101188.91;;;22.21;54.85
63395;BME280;49531;-34.520;150.798;2023-04-02T10:46:20;101188.91;;;22.21;54.80
63395;BME280;49531;-34.520;150.798;2023-04-02T10:48:53;101190.56;;;22.22;54.88
63395;BME280;49531;-34.520;150.798;2023-04-02T10:51:28;101190.31;;;22.23;54.91
63395;BME280;49531;-34.520;150.798;2023-04-02T10:54:12;101190.56;;;22.22;54.96
63395;BME280;49531;-34.520;150.798;2023-04-02T10:56:42;101197.91;;;22.21;54.78
63395;BME280;49531;-34.520;150.798;2023-04-02T10:59:14;101198.72;;;22.22;54.80
63395;BME280;49531;-34.520;150.798;2023-04-02T11:01:44;101202.25;;;22.22;54.86
63395;BME280;49531;-34.520;150.798;2023-04-02T11:04:18;101200.09;;;22.24;54.71
63395;BME280;49531;-34.520;150.798;2023-04-02T11:06:50;101197.66;;;22.23;54.79
63395;BME280;49531;-34.520;150.798;2023-04-02T11:09:20;101203.09;;;22.23;54.65
63395;BME280;49531;-34.520;150.798;2023-04-02T11:11:49;101200.63;;;22.21;54.68
63395;BME280;49531;-34.520;150.798;2023-04-02T11:14:24;101197.34;;;22.19;54.65
63395;BME280;49531;-34.520;150.798;2023-04-02T11:16:52;101199.81;;;22.21;54.72
63395;BME280;49531;-34.520;150.798;2023-04-02T11:19:22;101198.16;;;22.20;54.64
63395;BME280;49531;-34.520;150.798;2023-04-02T11:21:49;101196.00;;;22.22;54.68
63395;BME280;49531;-34.520;150.798;2023-04-02T11:24:25;101194.63;;;22.19;54.73
63395;BME280;49531;-34.520;150.798;2023-04-02T11:27:03;101187.53;;;22.18;54.68
63395;BME280;49531;-34.520;150.798;2023-04-02T11:29:30;101193.81;;;22.19;54.55
63395;BME280;49531;-34.520;150.798;2023-04-02T11:37:30;101191.59;;;22.16;54.66
63395;BME280;49531;-34.520;150.798;2023-04-02T11:39:58;101185.34;;;22.15;54.59
63395;BME280;49531;-34.520;150.798;2023-04-02T11:42:31;101182.63;;;22.15;54.57
63395;BME280;49531;-34.520;150.798;2023-04-02T11:45:00;101186.97;;;22.16;54.60
63395;BME280;49531;-34.520;150.798;2023-04-02T11:47:27;101187.22;;;22.15;54.60
63395;BME280;49531;-34.520;150.798;2023-04-02T11:49:57;101174.41;;;22.10;54.62
63395;BME280;49531;-34.520;150.798;2023-04-02T11:52:31;101176.31;;;22.10;54.67
63395;BME280;49531;-34.520;150.798;2023-04-02T11:55:00;101181.75;;;22.10;54.62
63395;BME280;49531;-34.520;150.798;2023-04-02T11:57:36;101193.41;;;22.05;54.69
63395;BME280;49531;-34.520;150.798;2023-04-02T12:00:18;101201.47;;;22.00;54.78
63395;BME280;49531;-34.520;150.798;2023-04-02T12:02:55;101185.72;;;21.97;54.85
63395;BME280;49531;-34.520;150.798;2023-04-02T12:05:34;101187.34;;;21.98;54.85
63395;BME280;49531;-34.520;150.798;2023-04-02T12:08:19;101189.50;;;21.96;54.77
63395;BME280;49531;-34.520;150.798;2023-04-02T12:10:51;101188.16;;;21.99;54.85
63395;BME280;49531;-34.520;150.798;2023-04-02T12:13:20;101186.84;;;22.01;54.63
63395;BME280;49531;-34.520;150.798;2023-04-02T12:16:09;101189.56;;;22.01;54.75
63395;BME280;49531;-34.520;150.798;2023-04-02T12:18:45;101186.59;;;22.03;54.70
63395;BME280;49531;-34.520;150.798;2023-04-02T12:21:14;101191.50;;;22.06;54.58
63395;BME280;49531;-34.520;150.798;2023-04-02T12:23:43;101184.16;;;22.06;54.37
63395;BME280;49531;-34.520;150.798;2023-04-02T12:28:48;101187.72;;;22.07;54.44
63395;BME280;49531;-34.520;150.798;2023-04-02T12:31:14;101184.44;;;22.05;54.54
63395;BME280;49531;-34.520;150.798;2023-04-02T12:33:43;101186.06;;;22.06;54.39
63395;BME280;49531;-34.520;150.798;2023-04-02T12:36:17;101179.53;;;22.07;54.35
63395;BME280;49531;-34.520;150.798;2023-04-02T12:38:47;101176.03;;;22.11;54.22
63395;BME280;49531;-34.520;150.798;2023-04-02T12:41:18;101179.59;;;22.12;54.31
63395;BME280;49531;-34.520;150.798;2023-04-02T12:43:56;101177.13;;;22.10;54.26
63395;BME280;49531;-34.520;150.798;2023-04-02T12:46:23;101177.13;;;22.10;54.20
63395;BME280;49531;-34.520;150.798;2023-04-02T12:48:52;101181.22;;;22.13;54.10
63395;BME280;49531;-34.520;150.798;2023-04-02T12:51:18;101186.66;;;22.13;54.13
63395;BME280;49531;-34.520;150.798;2023-04-02T12:53:48;101177.94;;;22.11;54.09
63395;BME280;49531;-34.520;150.798;2023-04-02T12:56:17;101170.88;;;22.10;54.17
63395;BME280;49531;-34.520;150.798;2023-04-02T12:58:57;101168.66;;;22.07;54.14
63395;BME280;49531;-34.520;150.798;2023-04-02T13:01:24;101179.28;;;22.08;54.15
63395;BME280;49531;-34.520;150.798;2023-04-02T13:04:05;101178.72;;;22.06;54.08
63395;BME280;49531;-34.520;150.798;2023-04-02T13:06:32;101176.00;;;22.06;54.20
63395;BME280;49531;-34.520;150.798;2023-04-02T13:08:59;101177.91;;;22.06;54.05
63395;BME280;49531;-34.520;150.798;2023-04-02T13:11:33;101178.16;;;22.04;54.13